createdAt,value
2018-07-23T00:02:04.018Z,23.70
2018-07-23T00:04:32.570Z,23.80
2018-07-23T00:07:00.990Z,23.70
2018-07-23T00:09:29.435Z,23.70
2018-07-23T00:11:57.840Z,23.70
2018-07-23T00:14:26.251Z,23.70
2018-07-23T00:16:54.628Z,23.70
2018-07-23T00:19:23.031Z,23.70
2018-07-23T00:21:51.439Z,23.60
2018-07-23T00:24:19.912Z,23.70
2018-07-23T00:26:48.495Z,23.80
2018-07-23T00:29:16.935Z,23.80
2018-07-23T00:31:45.411Z,23.80
2018-07-23T00:34:13.851Z,23.80
2018-07-23T00:36:42.335Z,23.90
2018-07-23T00:39:11.110Z,23.90
2018-07-23T00:41:39.579Z,24.00
2018-07-23T00:44:08.052Z,23.90
2018-07-23T00:46:36.505Z,23.80
2018-07-23T00:49:05.028Z,23.80
2018-07-23T00:51:33.491Z,23.70
2018-07-23T00:54:01.999Z,23.60
2018-07-23T00:56:30.400Z,23.50
2018-07-23T00:58:58.841Z,23.30
2018-07-23T01:01:27.243Z,23.20
2018-07-23T01:03:55.919Z,23.20
2018-07-23T01:06:24.307Z,23.10
2018-07-23T01:08:52.816Z,23.20
2018-07-23T01:11:21.377Z,23.30
2018-07-23T01:13:49.888Z,23.30
2018-07-23T01:16:18.361Z,23.40
2018-07-23T01:18:46.927Z,23.40
2018-07-23T01:21:15.340Z,23.40
2018-07-23T01:23:43.838Z,23.30
2018-07-23T01:26:12.264Z,23.30
2018-07-23T01:28:40.678Z,23.20
2018-07-23T01:31:09.071Z,23.20
2018-07-23T01:33:37.503Z,23.20
2018-07-23T01:36:05.932Z,23.30
2018-07-23T01:38:34.327Z,23.30
2018-07-23T01:41:02.883Z,23.20
2018-07-23T01:43:31.330Z,23.30
2018-07-23T01:45:59.803Z,23.30
2018-07-23T01:48:28.181Z,23.30
2018-07-23T01:50:56.731Z,23.30
2018-07-23T01:53:25.229Z,23.30
2018-07-23T01:55:53.668Z,23.30
2018-07-23T01:58:22.075Z,23.20
2018-07-23T02:00:50.512Z,23.00
2018-07-23T02:03:18.986Z,23.00
2018-07-23T02:05:47.515Z,22.90
2018-07-23T02:08:15.924Z,22.80
2018-07-23T02:10:44.299Z,22.70
2018-07-23T02:13:12.714Z,22.50
2018-07-23T02:15:41.128Z,22.50
2018-07-23T02:18:09.561Z,22.50
2018-07-23T02:20:37.941Z,22.40
2018-07-23T02:23:06.542Z,22.40
2018-07-23T02:25:34.952Z,22.30
2018-07-23T02:28:03.356Z,22.30
2018-07-23T02:30:31.756Z,22.40
2018-07-23T02:33:00.190Z,22.40
2018-07-23T02:35:28.616Z,22.40
2018-07-23T02:37:57.056Z,22.40
2018-07-23T02:40:25.461Z,22.50
2018-07-23T02:42:53.880Z,22.60
2018-07-23T02:45:22.252Z,22.60
2018-07-23T02:47:50.696Z,22.60
2018-07-23T02:50:19.140Z,22.60
2018-07-23T02:52:47.565Z,22.50
2018-07-23T02:55:15.970Z,22.30
2018-07-23T02:57:44.550Z,22.30
2018-07-23T03:00:13.133Z,22.30
2018-07-23T03:02:41.549Z,22.30
2018-07-23T03:05:09.979Z,22.20
2018-07-23T03:07:38.505Z,22.00
2018-07-23T03:10:07.313Z,21.80
2018-07-23T03:12:35.971Z,21.50
2018-07-23T03:15:05.073Z,21.10
2018-07-23T03:17:33.468Z,21.00
2018-07-23T03:20:01.878Z,20.80
2018-07-23T03:22:30.297Z,20.60
2018-07-23T03:24:58.719Z,20.40
2018-07-23T03:27:27.119Z,20.30
2018-07-23T03:29:55.523Z,20.30
2018-07-23T03:32:23.927Z,20.30
2018-07-23T03:34:52.353Z,20.30
2018-07-23T03:37:20.799Z,20.10
2018-07-23T03:39:49.215Z,20.10
2018-07-23T03:42:17.675Z,20.10
2018-07-23T03:44:46.083Z,20.00
2018-07-23T03:47:14.514Z,20.10
2018-07-23T03:49:43.084Z,20.00
2018-07-23T03:52:11.479Z,20.10
2018-07-23T03:54:39.891Z,20.10
2018-07-23T03:57:08.287Z,20.10
2018-07-23T03:59:36.676Z,20.10
2018-07-23T04:02:05.774Z,20.30
2018-07-23T04:04:34.178Z,20.30
2018-07-23T04:07:02.602Z,20.30
2018-07-23T04:09:31.042Z,20.20
2018-07-23T04:11:59.436Z,20.20
2018-07-23T04:14:28.182Z,20.20
2018-07-23T04:16:56.693Z,20.20
2018-07-23T04:19:25.184Z,20.10
2018-07-23T04:21:53.575Z,20.20
2018-07-23T04:24:21.960Z,20.30
2018-07-23T04:26:50.481Z,20.30
2018-07-23T04:29:19.048Z,20.40
2018-07-23T04:31:47.466Z,20.50
2018-07-23T04:34:15.893Z,20.60
2018-07-23T04:36:44.332Z,20.60
2018-07-23T04:39:12.725Z,20.60
2018-07-23T04:41:41.135Z,20.60
2018-07-23T04:44:09.532Z,20.50
2018-07-23T04:46:38.876Z,20.50
2018-07-23T04:49:07.260Z,20.50
2018-07-23T04:51:35.797Z,20.60
2018-07-23T04:54:04.335Z,20.60
2018-07-23T04:56:32.808Z,20.60
2018-07-23T04:59:01.137Z,20.60
2018-07-23T05:01:29.585Z,20.60
2018-07-23T05:03:57.981Z,20.60
2018-07-23T05:06:26.433Z,20.70
2018-07-23T05:08:54.835Z,20.90
2018-07-23T05:11:23.461Z,21.10
2018-07-23T05:13:51.949Z,21.20
2018-07-23T05:16:20.482Z,21.30
2018-07-23T05:18:48.855Z,21.40
2018-07-23T05:21:17.303Z,21.50
2018-07-23T05:23:45.752Z,21.70
2018-07-23T05:26:14.187Z,21.90
2018-07-23T05:28:42.525Z,22.10
2018-07-23T05:31:10.919Z,22.10
2018-07-23T05:33:39.643Z,22.30
2018-07-23T05:36:08.375Z,22.30
2018-07-23T05:38:36.803Z,22.60
2018-07-23T05:41:05.228Z,22.80
2018-07-23T05:43:33.776Z,22.90
2018-07-23T05:46:02.164Z,23.00
2018-07-23T05:48:30.568Z,23.00
2018-07-23T05:50:58.993Z,23.30
2018-07-23T05:53:27.437Z,23.50
2018-07-23T05:55:55.986Z,23.50
2018-07-23T05:58:24.416Z,23.80
2018-07-23T06:00:52.828Z,24.00
2018-07-23T06:03:21.300Z,24.10
2018-07-23T06:05:49.745Z,24.20
2018-07-23T06:08:18.237Z,24.40
2018-07-23T06:10:46.837Z,24.60
2018-07-23T06:13:15.323Z,24.80
2018-07-23T06:15:43.847Z,24.90
2018-07-23T06:18:13.179Z,25.10
2018-07-23T06:20:41.611Z,25.30
2018-07-23T06:23:10.084Z,25.40
2018-07-23T06:25:38.544Z,25.40
2018-07-23T06:28:08.004Z,25.40
2018-07-23T06:30:36.417Z,24.80
2018-07-23T06:33:05.210Z,24.50
2018-07-23T06:35:33.663Z,24.10
2018-07-23T06:38:02.102Z,23.80
2018-07-23T06:40:30.588Z,23.70
2018-07-23T06:42:59.031Z,23.60
2018-07-23T06:45:27.458Z,23.50
2018-07-23T06:47:56.021Z,23.40
2018-07-23T06:50:24.462Z,23.40
2018-07-23T06:52:53.027Z,23.40
2018-07-23T06:55:21.452Z,23.40
2018-07-23T06:57:49.866Z,23.40
2018-07-23T07:00:18.385Z,23.40
2018-07-23T07:02:46.758Z,23.50
2018-07-23T07:05:15.156Z,23.60
2018-07-23T07:07:43.552Z,23.60
2018-07-23T07:10:11.956Z,23.70
2018-07-23T07:12:40.398Z,23.80
2018-07-23T07:15:09.092Z,23.90
2018-07-23T07:17:37.490Z,23.80
2018-07-23T07:20:05.904Z,23.70
2018-07-23T07:22:34.277Z,23.90
2018-07-23T07:25:02.785Z,24.00
2018-07-23T07:27:31.217Z,24.20
2018-07-23T07:29:59.616Z,24.10
2018-07-23T07:32:28.089Z,24.30
2018-07-23T07:34:56.541Z,24.40
2018-07-23T07:37:25.993Z,24.70
2018-07-23T07:39:54.407Z,25.20
2018-07-23T07:42:22.860Z,25.80
2018-07-23T07:44:51.474Z,26.60
2018-07-23T07:47:19.892Z,27.20
2018-07-23T07:49:48.318Z,27.50
2018-07-23T07:52:16.728Z,27.70
2018-07-23T07:54:45.278Z,28.00
2018-07-23T07:57:13.668Z,28.10
2018-07-23T07:59:42.087Z,28.00
2018-07-23T08:02:10.517Z,28.20
2018-07-23T08:04:38.979Z,28.50
2018-07-23T08:07:07.450Z,28.40
2018-07-23T08:09:35.857Z,28.40
2018-07-23T08:12:04.313Z,28.70
2018-07-23T08:14:32.715Z,29.20
2018-07-23T08:17:01.103Z,29.80
2018-07-23T08:19:29.543Z,30.20
2018-07-23T08:21:57.955Z,29.90
2018-07-23T08:24:26.374Z,29.40
2018-07-23T08:26:54.809Z,28.90
2018-07-23T08:29:23.231Z,28.70
2018-07-23T08:31:51.642Z,28.60
2018-07-23T08:34:20.043Z,28.70
2018-07-23T08:36:48.477Z,28.90
2018-07-23T08:41:44.982Z,29.40
2018-07-23T08:44:13.382Z,29.90
2018-07-23T08:46:41.787Z,30.00
2018-07-23T08:49:10.239Z,29.80
2018-07-23T08:51:38.679Z,29.50
2018-07-23T08:54:07.089Z,29.60
2018-07-23T08:56:35.517Z,29.70
2018-07-23T08:59:04.026Z,29.70
2018-07-23T09:01:32.478Z,30.10
2018-07-23T09:04:00.869Z,30.40
2018-07-23T09:06:29.275Z,30.90
2018-07-23T09:08:57.663Z,31.00
2018-07-23T09:11:26.252Z,31.00
2018-07-23T09:13:54.816Z,31.30
2018-07-23T09:16:23.244Z,31.60
2018-07-23T09:18:51.677Z,31.90
2018-07-23T09:21:20.157Z,32.10
2018-07-23T09:23:48.653Z,32.20
2018-07-23T09:26:17.001Z,31.90
2018-07-23T09:28:45.393Z,31.80
2018-07-23T09:31:13.824Z,31.70
2018-07-23T09:33:42.248Z,31.50
2018-07-23T09:36:10.639Z,31.50
2018-07-23T09:38:39.135Z,31.00
2018-07-23T09:41:07.687Z,31.10
2018-07-23T09:43:36.140Z,31.50
2018-07-23T09:46:04.881Z,31.70
2018-07-23T09:48:33.302Z,32.20
2018-07-23T09:53:52.551Z,31.80
2018-07-23T09:56:21.010Z,31.80
2018-07-23T09:58:49.439Z,31.80
2018-07-23T10:01:18.634Z,31.60
2018-07-23T10:03:47.651Z,31.30
2018-07-23T10:06:16.141Z,31.30
2018-07-23T10:08:44.607Z,31.10
2018-07-23T10:11:13.035Z,31.00
2018-07-23T10:13:41.500Z,30.80
2018-07-23T10:16:10.019Z,30.60
2018-07-23T10:18:38.431Z,30.60
2018-07-23T10:21:06.831Z,30.40
2018-07-23T10:23:35.265Z,30.30
2018-07-23T10:26:03.956Z,30.60
2018-07-23T10:28:32.344Z,31.20
2018-07-23T10:31:00.816Z,31.80
2018-07-23T10:33:29.299Z,32.20
2018-07-23T10:35:57.784Z,32.20
2018-07-23T10:38:26.185Z,32.00
2018-07-23T10:40:54.600Z,31.20
2018-07-23T10:45:51.164Z,31.20
2018-07-23T10:48:19.772Z,31.40
2018-07-23T10:50:48.190Z,31.70
2018-07-23T10:53:16.582Z,31.60
2018-07-23T10:55:45.013Z,31.50
2018-07-23T10:58:13.472Z,31.50
2018-07-23T11:00:41.963Z,31.20
2018-07-23T11:03:10.407Z,30.70
2018-07-23T11:05:38.836Z,30.30
2018-07-23T11:08:07.296Z,30.20
2018-07-23T11:10:35.713Z,30.20
2018-07-23T11:13:04.157Z,30.10
2018-07-23T11:15:32.615Z,29.90
2018-07-23T11:18:01.101Z,30.30
2018-07-23T11:20:29.624Z,30.90
2018-07-23T11:22:58.036Z,31.50
2018-07-23T11:25:40.664Z,31.30
2018-07-23T11:27:55.000Z,31.10
2018-07-23T11:30:23.654Z,30.70
2018-07-23T11:32:52.091Z,30.40
2018-07-23T11:35:20.539Z,30.10
2018-07-23T11:37:48.964Z,29.90
2018-07-23T11:40:17.385Z,29.80
2018-07-23T11:42:45.834Z,29.80
2018-07-23T11:45:14.236Z,30.20
2018-07-23T11:47:42.643Z,30.60
2018-07-23T11:50:11.046Z,31.00
2018-07-23T11:52:39.438Z,31.30
2018-07-23T11:55:07.840Z,31.40
2018-07-23T11:57:36.297Z,31.20
2018-07-23T12:00:05.365Z,31.10
2018-07-23T12:02:33.904Z,30.90
2018-07-23T12:05:02.319Z,30.70
2018-07-23T12:07:30.792Z,30.50
2018-07-23T12:09:59.236Z,30.50
2018-07-23T12:12:27.676Z,30.50
2018-07-23T12:14:56.133Z,30.90
2018-07-23T12:17:24.874Z,31.20
2018-07-23T12:19:53.144Z,31.00
2018-07-23T12:22:21.557Z,30.90
2018-07-23T12:24:49.973Z,30.70
2018-07-23T12:27:18.381Z,30.50
2018-07-23T12:29:46.796Z,30.40
2018-07-23T12:32:15.252Z,30.40
2018-07-23T12:34:43.669Z,30.10
2018-07-23T12:37:12.207Z,30.20
2018-07-23T12:39:40.690Z,30.40
2018-07-23T12:42:09.183Z,30.60
2018-07-23T12:44:37.717Z,30.60
2018-07-23T12:47:06.319Z,30.60
2018-07-23T12:49:34.635Z,30.60
2018-07-23T12:52:03.136Z,30.40
2018-07-23T12:54:32.598Z,30.40
2018-07-23T12:57:01.272Z,30.50
2018-07-23T12:59:30.697Z,30.40
2018-07-23T13:01:59.088Z,30.40
2018-07-23T13:04:27.512Z,30.40
2018-07-23T13:06:55.888Z,30.40
2018-07-23T13:09:24.327Z,30.30
2018-07-23T13:11:52.704Z,30.40
2018-07-23T13:14:21.288Z,30.60
2018-07-23T13:16:49.816Z,30.60
2018-07-23T13:19:18.289Z,30.50
2018-07-23T13:21:46.728Z,30.60
2018-07-23T13:24:15.175Z,30.50
2018-07-23T13:26:43.636Z,30.40
2018-07-23T13:29:12.067Z,30.50
2018-07-23T13:31:40.431Z,30.50
2018-07-23T13:34:09.372Z,30.60
2018-07-23T13:36:37.884Z,30.80
2018-07-23T13:39:09.623Z,30.80
2018-07-23T13:41:38.054Z,30.90
2018-07-23T13:44:06.484Z,30.90
2018-07-23T13:46:34.970Z,30.70
2018-07-23T13:49:03.628Z,30.40
2018-07-23T13:51:32.641Z,30.10
2018-07-23T13:54:01.215Z,29.90
2018-07-23T13:56:29.845Z,29.90
2018-07-23T13:58:58.521Z,29.80
2018-07-23T14:01:27.010Z,29.90
2018-07-23T14:03:55.432Z,30.00
2018-07-23T14:06:24.319Z,29.90
2018-07-23T14:08:52.671Z,30.00
2018-07-23T14:11:21.316Z,30.10
2018-07-23T14:13:49.776Z,30.10
2018-07-23T14:16:18.191Z,30.20
2018-07-23T14:18:46.695Z,30.30
2018-07-23T14:21:15.114Z,30.30
2018-07-23T14:23:43.518Z,30.30
2018-07-23T14:26:11.927Z,30.30
2018-07-23T14:28:40.311Z,30.20
2018-07-23T14:31:08.729Z,30.30
2018-07-23T14:33:37.969Z,30.30
2018-07-23T14:36:06.412Z,30.30
2018-07-23T14:38:35.554Z,30.30
2018-07-23T14:43:32.115Z,30.30
2018-07-23T14:46:00.499Z,30.20
2018-07-23T14:48:28.895Z,30.10
2018-07-23T14:50:57.322Z,30.10
2018-07-23T14:53:25.841Z,30.10
2018-07-23T14:55:54.360Z,30.00
2018-07-23T14:58:22.814Z,30.00
2018-07-23T15:00:51.241Z,29.90
2018-07-23T15:03:19.682Z,30.00
2018-07-23T15:05:49.021Z,30.00
2018-07-23T15:08:17.868Z,29.90
2018-07-23T15:10:46.316Z,29.90
2018-07-23T15:13:14.703Z,29.80
2018-07-23T15:15:43.118Z,30.00
2018-07-23T15:18:11.492Z,30.10
2018-07-23T15:20:39.935Z,30.00
2018-07-23T15:23:08.339Z,29.90
2018-07-23T15:25:36.829Z,30.00
2018-07-23T15:28:05.433Z,30.00
2018-07-23T15:30:33.901Z,30.30
2018-07-23T15:33:02.489Z,30.40
2018-07-23T15:35:31.112Z,30.50
2018-07-23T15:37:59.544Z,30.60
2018-07-23T15:40:28.977Z,30.70
2018-07-23T15:42:57.400Z,30.80
2018-07-23T15:45:25.989Z,30.70
2018-07-23T15:47:54.295Z,30.60
2018-07-23T15:50:22.691Z,30.50
2018-07-23T15:52:51.141Z,30.50
2018-07-23T15:55:19.577Z,30.50
2018-07-23T15:57:48.128Z,30.20
2018-07-23T16:00:16.714Z,30.20
2018-07-23T16:02:45.147Z,30.10
2018-07-23T16:05:13.600Z,30.10
2018-07-23T16:07:42.404Z,30.10
2018-07-23T16:10:10.884Z,30.00
2018-07-23T16:12:39.319Z,30.10
2018-07-23T16:15:08.530Z,30.10
2018-07-23T16:17:36.895Z,30.10
2018-07-23T16:20:05.896Z,30.00
2018-07-23T16:22:34.350Z,30.00
2018-07-23T16:25:02.769Z,30.00
2018-07-23T16:27:43.836Z,29.80
2018-07-23T16:30:12.215Z,29.70
2018-07-23T16:32:40.695Z,29.70
2018-07-23T16:35:11.205Z,29.70
2018-07-23T16:37:42.468Z,29.70
2018-07-23T16:40:12.568Z,29.60
2018-07-23T16:42:40.996Z,29.50
2018-07-23T16:45:09.478Z,29.50
2018-07-23T16:47:37.915Z,29.30
2018-07-23T16:50:06.471Z,29.30
2018-07-23T16:52:34.913Z,29.10
2018-07-23T16:55:05.372Z,29.10
2018-07-23T16:57:33.797Z,29.10
2018-07-23T17:00:02.297Z,28.90
2018-07-23T17:02:30.631Z,28.90
2018-07-23T17:04:59.059Z,28.90
2018-07-23T17:07:27.451Z,28.80
2018-07-23T17:09:55.889Z,28.80
2018-07-23T17:12:24.410Z,28.80
2018-07-23T17:14:52.936Z,28.90
2018-07-23T17:17:21.388Z,28.90
2018-07-23T17:19:49.981Z,28.90
2018-07-23T17:22:18.449Z,28.90
2018-07-23T17:24:46.855Z,28.80
2018-07-23T17:27:15.264Z,28.80
2018-07-23T17:29:43.740Z,28.80
2018-07-23T17:32:12.344Z,28.70
2018-07-23T17:34:40.812Z,28.60
2018-07-23T17:37:09.208Z,28.60
2018-07-23T17:39:37.672Z,28.60
2018-07-23T17:42:06.103Z,28.60
2018-07-23T17:44:34.587Z,28.60
2018-07-23T17:47:03.052Z,28.50
2018-07-23T17:49:32.213Z,28.50
2018-07-23T17:52:00.603Z,28.50
2018-07-23T17:54:29.179Z,28.50
2018-07-23T17:56:57.631Z,28.50
2018-07-23T17:59:26.143Z,28.40
2018-07-23T18:01:55.548Z,28.50
2018-07-23T18:04:23.987Z,28.30
2018-07-23T18:06:53.077Z,28.20
2018-07-23T18:09:21.863Z,28.20
2018-07-23T18:11:51.399Z,28.10
2018-07-23T18:14:20.036Z,28.10
2018-07-23T18:16:48.449Z,28.10
2018-07-23T18:19:16.919Z,28.10
2018-07-23T18:21:45.319Z,28.00
2018-07-23T18:24:13.739Z,28.00
2018-07-23T18:26:43.108Z,27.90
2018-07-23T18:31:39.815Z,27.90
2018-07-23T18:34:08.286Z,27.90
2018-07-23T18:36:36.913Z,27.90
2018-07-23T18:39:09.255Z,27.80
2018-07-23T18:41:38.093Z,27.80
2018-07-23T18:44:06.796Z,27.70
2018-07-23T18:46:35.275Z,27.70
2018-07-23T18:49:25.091Z,27.70
2018-07-23T18:51:54.366Z,27.70
2018-07-23T18:54:24.206Z,27.60
2018-07-23T18:56:54.286Z,27.50
2018-07-23T18:59:22.706Z,27.50
2018-07-23T19:01:52.236Z,27.30
2018-07-23T19:04:20.760Z,27.30
2018-07-23T19:06:49.597Z,27.20
2018-07-23T19:09:19.165Z,27.20
2018-07-23T19:11:50.210Z,27.10
2018-07-23T19:14:19.941Z,27.00
2018-07-23T19:16:52.474Z,27.00
2018-07-23T19:19:20.914Z,26.90
2018-07-23T19:21:49.369Z,26.90
2018-07-23T19:24:17.880Z,26.90
2018-07-23T19:26:46.301Z,26.80
2018-07-23T19:29:14.891Z,26.80
2018-07-23T19:31:43.368Z,26.70
2018-07-23T19:34:13.064Z,26.70
2018-07-23T19:36:41.559Z,26.60
2018-07-23T19:39:12.656Z,26.60
2018-07-23T19:41:41.377Z,26.50
2018-07-23T19:44:10.177Z,26.50
2018-07-23T19:46:38.763Z,26.40
2018-07-23T19:49:07.221Z,26.40
2018-07-23T19:51:35.889Z,26.30
2018-07-23T19:54:04.696Z,26.30
2018-07-23T19:56:33.208Z,26.30
2018-07-23T19:59:01.652Z,26.30
2018-07-23T20:01:30.286Z,26.30
2018-07-23T20:04:01.481Z,26.30
2018-07-23T20:06:30.082Z,26.30
2018-07-23T20:08:59.625Z,26.30
2018-07-23T20:11:28.736Z,26.20
2018-07-23T20:13:57.248Z,26.20
2018-07-23T20:16:25.863Z,26.10
2018-07-23T20:18:54.432Z,26.00
2018-07-23T20:21:22.895Z,26.00
2018-07-23T20:23:51.324Z,26.00
2018-07-23T20:26:19.811Z,25.90
2018-07-23T20:28:48.220Z,25.80
2018-07-23T20:31:16.931Z,25.80
2018-07-23T20:33:45.399Z,25.80
2018-07-23T20:36:14.068Z,25.70
2018-07-23T20:38:42.535Z,25.70
2018-07-23T20:41:10.945Z,25.60
2018-07-23T20:43:39.389Z,25.60
2018-07-23T20:46:07.815Z,25.60
2018-07-23T20:48:36.289Z,25.50
2018-07-23T20:51:04.712Z,25.50
2018-07-23T20:53:33.564Z,25.40
2018-07-23T20:56:02.124Z,25.30
2018-07-23T20:58:30.577Z,25.10
2018-07-23T21:00:59.116Z,24.90
2018-07-23T21:03:27.616Z,24.90
2018-07-23T21:05:56.051Z,24.80
2018-07-23T21:08:24.583Z,24.70
2018-07-23T21:10:53.049Z,24.70
2018-07-23T21:13:21.486Z,24.70
2018-07-23T21:15:49.895Z,24.60
2018-07-23T21:18:18.354Z,24.50
2018-07-23T21:20:46.914Z,24.40
2018-07-23T21:23:15.344Z,24.30
2018-07-23T21:25:43.886Z,24.30
2018-07-23T21:28:12.319Z,24.30
2018-07-23T21:30:40.729Z,24.30
2018-07-23T21:33:09.112Z,24.20
2018-07-23T21:35:38.109Z,24.10
2018-07-23T21:38:06.500Z,24.10
2018-07-23T21:40:35.069Z,24.00
2018-07-23T21:43:03.503Z,24.00
2018-07-23T21:45:32.057Z,23.90
2018-07-23T21:48:00.489Z,23.90
2018-07-23T21:50:28.943Z,23.60
2018-07-23T21:52:58.218Z,23.50
2018-07-23T21:55:26.878Z,23.40
2018-07-23T21:57:55.438Z,23.40
2018-07-23T22:00:23.996Z,23.40
2018-07-23T22:02:52.426Z,23.30
2018-07-23T22:05:20.848Z,23.30
2018-07-23T22:07:49.338Z,23.30
2018-07-23T22:10:17.719Z,23.30
2018-07-23T22:12:46.172Z,23.20
2018-07-23T22:15:14.732Z,23.20
2018-07-23T22:17:43.130Z,23.20
2018-07-23T22:20:11.576Z,23.20
2018-07-23T22:22:40.048Z,23.20
2018-07-23T22:25:08.476Z,23.20
2018-07-23T22:27:36.953Z,23.20
2018-07-23T22:30:05.944Z,23.10
2018-07-23T22:32:34.391Z,23.10
2018-07-23T22:35:02.838Z,23.10
2018-07-23T22:37:31.340Z,23.10
2018-07-23T22:39:59.750Z,23.20
2018-07-23T22:42:28.151Z,23.20
2018-07-23T22:44:56.632Z,23.10
2018-07-23T22:47:25.081Z,23.10
2018-07-23T22:49:53.540Z,23.00
2018-07-23T22:52:21.935Z,23.00
2018-07-23T22:54:50.332Z,22.90
2018-07-23T22:57:18.738Z,22.80
2018-07-23T22:59:47.139Z,22.70
2018-07-23T23:02:15.649Z,22.60
2018-07-23T23:04:44.056Z,22.50
2018-07-23T23:07:12.456Z,22.40
2018-07-23T23:09:40.870Z,22.40
2018-07-23T23:12:09.834Z,22.40
2018-07-23T23:14:38.232Z,22.40
2018-07-23T23:17:06.629Z,22.30
2018-07-23T23:19:35.061Z,22.30
2018-07-23T23:22:03.472Z,22.40
2018-07-23T23:24:32.303Z,22.40
2018-07-23T23:27:00.735Z,22.50
2018-07-23T23:29:29.154Z,22.50
2018-07-23T23:31:57.629Z,22.70
2018-07-23T23:34:26.023Z,22.80
2018-07-23T23:36:54.451Z,22.90
2018-07-23T23:39:22.888Z,23.00
2018-07-23T23:41:51.327Z,23.10
2018-07-23T23:44:19.720Z,23.20
2018-07-23T23:46:48.171Z,23.20
2018-07-23T23:49:16.579Z,23.20
2018-07-23T23:51:44.994Z,23.20
2018-07-23T23:54:13.422Z,23.10
2018-07-23T23:56:41.815Z,23.00
2018-07-23T23:59:10.231Z,23.00
